createdAt,value
2017-08-17T00:01:49.430Z,101259.98
2017-08-17T00:04:17.724Z,101263.53
2017-08-17T00:06:46.085Z,101260.52
2017-08-17T00:09:14.376Z,101257.75
2017-08-17T00:11:42.710Z,101266.80
2017-08-17T00:14:11.037Z,101260.73
2017-08-17T00:16:39.349Z,101260.59
2017-08-17T00:19:07.769Z,101260.16
2017-08-17T00:21:36.093Z,101259.61
2017-08-17T00:24:05.244Z,101260.13
2017-08-17T00:26:33.581Z,101256.55
2017-08-17T00:29:01.910Z,101262.28
2017-08-17T00:31:30.385Z,101251.97
2017-08-17T00:33:58.700Z,101252.38
2017-08-17T00:36:27.764Z,101250.59
2017-08-17T00:38:56.081Z,101243.05
2017-08-17T00:41:24.425Z,101237.09
2017-08-17T00:43:52.730Z,101236.55
2017-08-17T00:46:21.795Z,101244.75
2017-08-17T00:48:50.118Z,101247.09
2017-08-17T00:51:18.421Z,101250.22
2017-08-17T00:53:46.727Z,101250.52
2017-08-17T00:56:15.088Z,101244.62
2017-08-17T00:58:43.464Z,101243.11
2017-08-17T01:01:11.852Z,101235.53
2017-08-17T01:03:40.170Z,101237.02
2017-08-17T01:06:09.331Z,101232.77
2017-08-17T01:08:37.642Z,101241.41
2017-08-17T01:11:06.810Z,101238.12
2017-08-17T01:13:35.186Z,101232.60
2017-08-17T01:16:03.502Z,101229.73
2017-08-17T01:18:31.841Z,101225.72
2017-08-17T01:21:00.146Z,101217.66
2017-08-17T01:23:29.311Z,101215.84
2017-08-17T01:25:57.685Z,101212.00
2017-08-17T01:28:26.000Z,101214.91
2017-08-17T01:30:55.061Z,101204.76
2017-08-17T01:33:23.364Z,101201.05
2017-08-17T01:35:52.529Z,101197.48
2017-08-17T01:38:20.923Z,101196.53
2017-08-17T01:40:49.244Z,101196.11
2017-08-17T01:43:17.567Z,101197.21
2017-08-17T01:45:45.876Z,101194.69
2017-08-17T01:48:15.039Z,101193.84
2017-08-17T01:50:43.352Z,101195.73
2017-08-17T01:53:12.417Z,101205.12
2017-08-17T01:55:40.724Z,101208.27
2017-08-17T01:58:09.790Z,101199.48
2017-08-17T02:00:38.100Z,101196.47
2017-08-17T02:03:07.185Z,101192.05
2017-08-17T02:05:36.292Z,101201.19
2017-08-17T02:08:05.454Z,101197.73
2017-08-17T02:10:33.757Z,101199.63
2017-08-17T02:13:02.829Z,101189.89
2017-08-17T02:15:31.211Z,101200.30
2017-08-17T02:17:59.547Z,101193.11
2017-08-17T02:20:27.862Z,101193.11
2017-08-17T02:22:56.185Z,101195.98
2017-08-17T02:25:24.498Z,101191.05
2017-08-17T02:27:52.818Z,101191.59
2017-08-17T02:30:21.982Z,101182.41
2017-08-17T02:32:50.293Z,101191.77
2017-08-17T02:35:19.482Z,101189.16
2017-08-17T02:37:47.813Z,101180.73
2017-08-17T02:40:16.217Z,101180.19
2017-08-17T02:42:44.551Z,101180.98
2017-08-17T02:45:12.873Z,101185.86
2017-08-17T02:47:41.323Z,101176.66
2017-08-17T02:50:09.650Z,101176.19
2017-08-17T02:52:38.010Z,101176.56
2017-08-17T02:55:06.341Z,101183.41
2017-08-17T02:57:34.666Z,101179.14
2017-08-17T03:00:03.063Z,101180.34
2017-08-17T03:02:31.380Z,101180.72
2017-08-17T03:04:59.710Z,101185.22
2017-08-17T03:07:28.082Z,101177.95
2017-08-17T03:09:56.463Z,101170.14
2017-08-17T03:12:24.765Z,101175.48
2017-08-17T03:14:53.938Z,101163.87
2017-08-17T03:17:22.275Z,101162.36
2017-08-17T03:19:50.585Z,101160.20
2017-08-17T03:22:18.901Z,101160.88
2017-08-17T03:24:48.061Z,101157.45
2017-08-17T03:27:16.373Z,101168.01
2017-08-17T03:29:45.538Z,101159.67
2017-08-17T03:32:13.923Z,101148.68
2017-08-17T03:34:42.228Z,101141.97
2017-08-17T03:37:11.322Z,101131.77
2017-08-17T03:39:40.385Z,101134.64
2017-08-17T03:42:08.684Z,101136.70
2017-08-17T03:44:37.853Z,101139.20
2017-08-17T03:47:06.231Z,101130.16
2017-08-17T03:49:34.609Z,101131.08
2017-08-17T03:52:02.936Z,101133.03
2017-08-17T03:54:31.277Z,101139.63
2017-08-17T03:56:59.657Z,101133.77
2017-08-17T03:59:28.021Z,101133.94
2017-08-17T04:01:56.403Z,101127.73
2017-08-17T04:04:24.786Z,101126.13
2017-08-17T04:06:53.098Z,101120.91
2017-08-17T04:09:22.187Z,101119.84
2017-08-17T04:11:51.354Z,101125.63
2017-08-17T04:14:19.730Z,101118.77
2017-08-17T04:16:48.109Z,101120.73
2017-08-17T04:19:16.429Z,101119.66
2017-08-17T04:21:45.540Z,101130.69
2017-08-17T04:24:13.850Z,101131.12
2017-08-17T04:26:42.260Z,101138.16
2017-08-17T04:29:10.567Z,101138.20
2017-08-17T04:31:38.882Z,101143.41
2017-08-17T04:34:07.185Z,101146.48
2017-08-17T04:36:35.522Z,101149.59
2017-08-17T04:39:03.933Z,101141.40
2017-08-17T04:41:32.305Z,101137.86
2017-08-17T04:44:00.629Z,101137.90
2017-08-17T04:46:28.965Z,101144.77
2017-08-17T04:48:57.345Z,101146.40
2017-08-17T04:51:25.723Z,101135.42
2017-08-17T04:53:54.118Z,101125.79
2017-08-17T04:56:46.585Z,101128.82
2017-08-17T04:59:14.901Z,101129.54
2017-08-17T05:01:43.205Z,101130.82
2017-08-17T05:04:11.534Z,101123.44
2017-08-17T05:06:40.054Z,101125.67
2017-08-17T05:09:08.360Z,101119.93
2017-08-17T05:11:37.529Z,101111.91
2017-08-17T05:14:05.841Z,101114.39
2017-08-17T05:16:34.945Z,101113.86
2017-08-17T05:19:04.017Z,101111.81
2017-08-17T05:21:32.333Z,101112.91
2017-08-17T05:24:00.641Z,101114.84
2017-08-17T05:26:28.983Z,101111.55
2017-08-17T05:28:57.310Z,101123.09
2017-08-17T05:31:25.616Z,101115.92
2017-08-17T05:33:54.783Z,101117.03
2017-08-17T05:36:23.094Z,101114.92
2017-08-17T05:38:52.169Z,101115.80
2017-08-17T05:41:20.478Z,101117.78
2017-08-17T05:43:48.790Z,101110.53
2017-08-17T05:46:17.113Z,101116.11
2017-08-17T05:48:46.196Z,101119.91
2017-08-17T05:51:14.561Z,101116.25
2017-08-17T05:53:42.872Z,101119.03
2017-08-17T05:56:11.938Z,101115.34
2017-08-17T05:58:40.309Z,101111.56
2017-08-17T06:01:08.614Z,101110.37
2017-08-17T06:03:37.792Z,101107.69
2017-08-17T06:06:06.130Z,101106.59
2017-08-17T06:08:34.438Z,101105.38
2017-08-17T06:11:02.774Z,101106.88
2017-08-17T06:13:31.079Z,101098.05
2017-08-17T06:15:59.474Z,101099.10
2017-08-17T06:18:27.866Z,101104.50
2017-08-17T06:20:56.195Z,101098.86
2017-08-17T06:23:24.514Z,101105.48
2017-08-17T06:25:52.838Z,101108.67
2017-08-17T06:28:21.144Z,101103.09
2017-08-17T06:30:49.461Z,101103.02
2017-08-17T06:33:17.822Z,101099.76
2017-08-17T06:35:46.510Z,101095.13
2017-08-17T06:38:14.818Z,101088.31
2017-08-17T06:40:43.896Z,101098.37
2017-08-17T06:43:12.211Z,101099.26
2017-08-17T06:45:40.537Z,101095.56
2017-08-17T06:48:08.909Z,101097.10
2017-08-17T06:50:37.217Z,101094.20
2017-08-17T06:53:06.302Z,101085.92
2017-08-17T06:55:34.665Z,101094.56
2017-08-17T06:58:03.058Z,101083.34
2017-08-17T07:00:31.374Z,101069.34
2017-08-17T07:02:59.697Z,101071.86
2017-08-17T07:05:28.077Z,101073.60
2017-08-17T07:07:56.385Z,101063.96
2017-08-17T07:10:25.470Z,101063.82
2017-08-17T07:12:54.537Z,101066.84
2017-08-17T07:15:22.922Z,101068.74
2017-08-17T07:17:52.250Z,101069.32
2017-08-17T07:20:21.434Z,101066.91
2017-08-17T07:22:49.741Z,101065.22
2017-08-17T07:25:18.069Z,101063.45
2017-08-17T07:27:46.449Z,101060.57
2017-08-17T07:30:14.836Z,101059.72
2017-08-17T07:32:43.221Z,101059.17
2017-08-17T07:35:11.525Z,101051.50
2017-08-17T07:37:40.677Z,101051.75
2017-08-17T07:40:09.070Z,101041.79
2017-08-17T07:42:37.388Z,101034.86
2017-08-17T07:45:05.705Z,101035.84
2017-08-17T07:47:34.093Z,101031.72
2017-08-17T07:50:02.400Z,101046.77
2017-08-17T07:52:31.502Z,101048.65
2017-08-17T07:55:00.669Z,101048.39
2017-08-17T07:57:29.054Z,101043.28
2017-08-17T07:59:57.423Z,101043.48
2017-08-17T08:02:25.802Z,101036.16
2017-08-17T08:04:54.114Z,101035.36
2017-08-17T08:07:23.285Z,101034.18
2017-08-17T08:09:51.661Z,101038.72
2017-08-17T08:12:19.977Z,101037.59
2017-08-17T08:14:48.317Z,101028.26
2017-08-17T08:17:16.690Z,101024.93
2017-08-17T08:19:45.069Z,101027.52
2017-08-17T08:22:13.412Z,101020.95
2017-08-17T08:24:41.746Z,101018.70
2017-08-17T08:27:10.927Z,101013.88
2017-08-17T08:29:39.242Z,101014.63
2017-08-17T08:32:07.589Z,101018.19
2017-08-17T08:34:35.954Z,101013.30
2017-08-17T08:37:04.277Z,101019.00
2017-08-17T08:39:32.574Z,101019.41
2017-08-17T08:42:00.897Z,101013.70
2017-08-17T08:44:29.198Z,101013.64
2017-08-17T08:46:58.287Z,101018.34
2017-08-17T08:49:27.354Z,101027.11
2017-08-17T08:51:55.732Z,101025.33
2017-08-17T08:54:24.122Z,101011.85
2017-08-17T08:56:52.486Z,101014.59
2017-08-17T08:59:20.792Z,101007.89
2017-08-17T09:01:49.858Z,101005.14
2017-08-17T09:04:18.166Z,101004.55
2017-08-17T09:06:47.338Z,101003.25
2017-08-17T09:09:15.654Z,100996.53
2017-08-17T09:11:43.987Z,100986.63
2017-08-17T09:14:12.368Z,100989.81
2017-08-17T09:16:40.669Z,100987.32
2017-08-17T09:19:09.040Z,100989.72
2017-08-17T09:21:37.402Z,100990.41
2017-08-17T09:24:05.782Z,100988.89
2017-08-17T09:26:34.086Z,100977.28
2017-08-17T09:29:03.178Z,100981.33
2017-08-17T09:31:32.246Z,100980.22
2017-08-17T09:34:00.658Z,100980.56
2017-08-17T09:36:29.838Z,100982.55
2017-08-17T09:38:58.213Z,100980.05
2017-08-17T09:41:26.591Z,100979.25
2017-08-17T09:43:54.955Z,100972.75
2017-08-17T09:46:23.258Z,100974.36
2017-08-17T09:48:51.548Z,100979.19
2017-08-17T09:51:20.694Z,100983.96
2017-08-17T09:53:48.995Z,100979.45
2017-08-17T09:56:17.304Z,100986.99
2017-08-17T09:58:46.399Z,100984.09
2017-08-17T10:01:15.497Z,100977.83
2017-08-17T10:03:44.654Z,100966.73
2017-08-17T10:06:13.035Z,100962.70
2017-08-17T10:08:41.345Z,100961.48
2017-08-17T10:11:10.413Z,100962.69
2017-08-17T10:13:38.782Z,100951.91
2017-08-17T10:16:07.170Z,100948.98
2017-08-17T10:18:35.538Z,100945.33
2017-08-17T10:21:03.851Z,100940.20
2017-08-17T10:23:33.014Z,100938.06
2017-08-17T10:26:01.315Z,100942.92
2017-08-17T10:28:29.679Z,100938.10
2017-08-17T10:30:57.984Z,100939.25
2017-08-17T10:33:27.075Z,100933.70
2017-08-17T10:35:56.145Z,100927.86
2017-08-17T10:38:24.514Z,100927.09
2017-08-17T10:40:52.903Z,100932.75
2017-08-17T10:43:21.386Z,100924.59
2017-08-17T10:45:49.750Z,100918.75
2017-08-17T10:48:18.050Z,100911.84
2017-08-17T10:50:46.419Z,100921.06
2017-08-17T10:53:14.717Z,100915.72
2017-08-17T10:55:43.839Z,100913.20
2017-08-17T10:58:12.148Z,100919.10
2017-08-17T11:00:40.446Z,100909.02
2017-08-17T11:03:08.820Z,100906.52
2017-08-17T11:05:37.202Z,100913.94
2017-08-17T11:08:05.644Z,100903.54
2017-08-17T11:10:34.156Z,100896.80
2017-08-17T11:13:02.538Z,100900.83
2017-08-17T11:15:30.918Z,100893.06
2017-08-17T11:17:59.238Z,100902.88
2017-08-17T11:20:27.554Z,100893.05
2017-08-17T11:22:55.858Z,100890.56
2017-08-17T11:25:24.225Z,100896.68
2017-08-17T11:27:52.541Z,100888.89
2017-08-17T11:30:21.601Z,100887.85
2017-08-17T11:32:49.914Z,100878.28
2017-08-17T11:35:18.236Z,100876.06
2017-08-17T11:37:46.571Z,100875.06
2017-08-17T11:40:14.874Z,100883.95
2017-08-17T11:42:43.171Z,100877.09
2017-08-17T11:45:11.488Z,100871.50
2017-08-17T11:47:40.554Z,100865.20
2017-08-17T11:50:08.928Z,100860.16
2017-08-17T11:52:37.226Z,100857.05
2017-08-17T11:55:05.595Z,100856.61
2017-08-17T11:57:33.893Z,100849.59
2017-08-17T12:00:02.966Z,100855.05
2017-08-17T12:02:31.342Z,100846.85
2017-08-17T12:04:59.700Z,100853.50
2017-08-17T12:07:28.096Z,100835.61
2017-08-17T12:09:56.475Z,100849.05
2017-08-17T12:12:24.785Z,100843.68
2017-08-17T12:14:53.952Z,100846.85
2017-08-17T12:17:22.326Z,100846.13
2017-08-17T12:19:50.641Z,100842.50
2017-08-17T12:22:19.803Z,100836.28
2017-08-17T12:24:48.183Z,100835.56
2017-08-17T12:27:16.632Z,100826.36
2017-08-17T12:29:44.941Z,100825.64
2017-08-17T12:32:13.242Z,100827.64
2017-08-17T12:34:42.409Z,100818.89
2017-08-17T12:37:10.705Z,100821.01
2017-08-17T12:39:39.014Z,100811.81
2017-08-17T12:42:07.346Z,100812.12
2017-08-17T12:44:35.661Z,100805.31
2017-08-17T12:47:04.759Z,100807.92
2017-08-17T12:49:34.023Z,100801.88
2017-08-17T12:52:02.429Z,100803.84
2017-08-17T12:54:31.645Z,100797.77
2017-08-17T12:56:59.978Z,100802.70
2017-08-17T12:59:28.329Z,100802.48
2017-08-17T13:01:56.630Z,100790.58
2017-08-17T13:04:25.014Z,100792.27
2017-08-17T13:06:53.388Z,100785.53
2017-08-17T13:09:21.685Z,100783.83
2017-08-17T13:11:50.863Z,100779.20
2017-08-17T13:14:19.173Z,100784.02
2017-08-17T13:16:48.329Z,100781.57
2017-08-17T13:19:16.707Z,100772.78
2017-08-17T13:21:45.086Z,100780.49
2017-08-17T13:24:13.464Z,100772.48
2017-08-17T13:26:41.762Z,100769.83
2017-08-17T13:29:10.064Z,100762.36
2017-08-17T13:31:39.134Z,100768.59
2017-08-17T13:34:07.450Z,100760.44
2017-08-17T13:36:35.769Z,100756.58
2017-08-17T13:39:04.085Z,100759.47
2017-08-17T13:41:33.140Z,100749.95
2017-08-17T13:44:01.482Z,100752.72
2017-08-17T13:46:29.778Z,100756.03
2017-08-17T13:48:58.079Z,100748.35
2017-08-17T13:51:26.448Z,100746.75
2017-08-17T13:53:54.755Z,100740.48
2017-08-17T13:56:23.839Z,100743.08
2017-08-17T13:58:52.143Z,100736.41
2017-08-17T14:01:21.302Z,100734.38
2017-08-17T14:03:49.675Z,100734.88
2017-08-17T14:06:18.057Z,100730.98
2017-08-17T14:08:46.353Z,100734.33
2017-08-17T14:11:14.670Z,100727.70
2017-08-17T14:13:42.982Z,100726.55
2017-08-17T14:16:11.376Z,100717.06
2017-08-17T14:18:39.751Z,100722.81
2017-08-17T14:21:08.126Z,100721.14
2017-08-17T14:23:36.514Z,100718.28
2017-08-17T14:26:04.828Z,100715.39
2017-08-17T14:28:33.160Z,100713.61
2017-08-17T14:31:01.454Z,100713.20
2017-08-17T14:33:29.781Z,100708.31
2017-08-17T14:35:58.077Z,100717.87
2017-08-17T14:38:26.394Z,100712.85
2017-08-17T14:40:55.565Z,100711.90
2017-08-17T14:43:23.871Z,100711.17
2017-08-17T14:45:53.043Z,100711.36
2017-08-17T14:48:21.377Z,100710.66
2017-08-17T14:50:49.674Z,100712.31
2017-08-17T14:53:17.977Z,100710.19
2017-08-17T14:55:46.349Z,100704.13
2017-08-17T14:58:14.650Z,100699.99
2017-08-17T15:00:43.732Z,100695.08
2017-08-17T15:03:12.101Z,100686.72
2017-08-17T15:05:40.482Z,100694.39
2017-08-17T15:08:08.862Z,100694.09
2017-08-17T15:10:37.245Z,100689.52
2017-08-17T15:13:05.618Z,100699.87
2017-08-17T15:15:33.994Z,100695.61
2017-08-17T15:18:02.289Z,100697.41
2017-08-17T15:20:30.619Z,100702.20
2017-08-17T15:22:58.922Z,100694.33
2017-08-17T15:25:27.317Z,100694.92
2017-08-17T15:27:55.629Z,100697.09
2017-08-17T15:30:23.982Z,100697.86
2017-08-17T15:32:52.344Z,100698.56
2017-08-17T15:35:20.658Z,100694.98
2017-08-17T15:37:49.823Z,100690.45
2017-08-17T15:40:18.186Z,100685.58
2017-08-17T15:42:46.572Z,100687.42
2017-08-17T15:45:14.955Z,100684.53
2017-08-17T15:47:43.351Z,100675.50
2017-08-17T15:50:11.708Z,100677.13
2017-08-17T15:52:40.087Z,100681.42
2017-08-17T15:55:08.468Z,100676.94
2017-08-17T15:57:36.855Z,100678.00
2017-08-17T16:00:05.227Z,100673.56
2017-08-17T16:02:33.605Z,100673.28
2017-08-17T16:05:01.988Z,100669.67
2017-08-17T16:07:30.291Z,100674.52
2017-08-17T16:09:59.366Z,100674.70
2017-08-17T16:12:27.676Z,100679.31
2017-08-17T16:14:56.002Z,100675.05
2017-08-17T16:17:24.297Z,100667.69
2017-08-17T16:19:52.665Z,100667.69
2017-08-17T16:22:20.982Z,100663.14
2017-08-17T16:24:50.155Z,100655.77
2017-08-17T16:27:18.485Z,100656.18
2017-08-17T16:29:46.782Z,100657.53
2017-08-17T16:32:15.093Z,100656.36
2017-08-17T16:34:43.393Z,100653.61
2017-08-17T16:37:11.723Z,100648.03
2017-08-17T16:39:40.039Z,100652.23
2017-08-17T16:42:09.210Z,100658.79
2017-08-17T16:44:37.518Z,100662.69
2017-08-17T16:47:06.587Z,100665.80
2017-08-17T16:49:34.957Z,100671.67
2017-08-17T16:52:03.249Z,100659.09
2017-08-17T16:54:31.606Z,100658.98
2017-08-17T16:56:59.978Z,100657.69
2017-08-17T16:59:28.286Z,100657.16
2017-08-17T17:01:57.350Z,100653.82
2017-08-17T17:04:25.738Z,100649.98
2017-08-17T17:06:54.109Z,100644.41
2017-08-17T17:09:22.451Z,100644.48
2017-08-17T17:11:50.766Z,100647.52
2017-08-17T17:14:19.142Z,100651.98
2017-08-17T17:16:47.529Z,100652.62
2017-08-17T17:19:15.828Z,100651.83
2017-08-17T17:21:44.973Z,100659.19
2017-08-17T17:24:13.382Z,100659.64
2017-08-17T17:26:42.374Z,100657.13
2017-08-17T17:29:10.691Z,100663.43
2017-08-17T17:31:39.025Z,100659.78
2017-08-17T17:34:07.326Z,100662.89
2017-08-17T17:36:35.661Z,100662.78
2017-08-17T17:39:03.969Z,100661.70
2017-08-17T17:41:32.269Z,100669.42
2017-08-17T17:44:01.430Z,100677.26
2017-08-17T17:46:29.733Z,100680.13
2017-08-17T17:48:58.041Z,100679.52
2017-08-17T17:51:26.337Z,100674.86
2017-08-17T17:53:54.638Z,100679.50
2017-08-17T17:56:22.934Z,100687.38
2017-08-17T17:58:51.241Z,100690.98
2017-08-17T18:01:19.538Z,100704.70
2017-08-17T18:03:47.833Z,100713.56
2017-08-17T18:06:16.141Z,100716.52
2017-08-17T18:09:13.034Z,100722.92
2017-08-17T18:11:41.351Z,100724.16
2017-08-17T18:14:09.656Z,100718.09
2017-08-17T18:16:38.745Z,100726.70
2017-08-17T18:19:07.805Z,100723.05
2017-08-17T18:21:36.122Z,100719.52
2017-08-17T18:24:05.194Z,100713.62
2017-08-17T18:26:33.534Z,100712.55
2017-08-17T18:29:01.845Z,100714.31
2017-08-17T18:31:30.150Z,100719.42
2017-08-17T18:33:59.208Z,100706.23
2017-08-17T18:36:27.517Z,100707.98
2017-08-17T18:38:55.814Z,100706.02
2017-08-17T18:41:24.122Z,100708.70
2017-08-17T18:43:52.421Z,100710.13
2017-08-17T18:46:20.723Z,100709.91
2017-08-17T18:48:49.840Z,100717.95
2017-08-17T18:51:18.901Z,100718.09
2017-08-17T18:53:47.209Z,100712.03
2017-08-17T18:56:16.302Z,100713.91
2017-08-17T18:58:45.382Z,100706.74
2017-08-17T19:01:14.493Z,100707.38
2017-08-17T19:03:43.578Z,100708.25
2017-08-17T19:06:12.649Z,100696.06
2017-08-17T19:08:40.954Z,100696.57
2017-08-17T19:11:10.021Z,100690.09
2017-08-17T19:13:38.325Z,100684.42
2017-08-17T19:16:06.627Z,100689.28
2017-08-17T19:18:34.930Z,100689.25
2017-08-17T19:21:03.244Z,100685.56
2017-08-17T19:23:31.545Z,100687.98
2017-08-17T19:26:00.715Z,100686.98
2017-08-17T19:28:29.020Z,100680.86
2017-08-17T19:30:57.450Z,100679.42
2017-08-17T19:33:25.770Z,100686.50
2017-08-17T19:35:54.938Z,100684.31
2017-08-17T19:38:23.236Z,100682.92
2017-08-17T19:40:52.300Z,100674.27
2017-08-17T19:43:20.607Z,100673.94
2017-08-17T19:45:49.717Z,100661.89
2017-08-17T19:48:18.061Z,100666.16
2017-08-17T19:50:46.434Z,100686.39
2017-08-17T19:53:14.751Z,100689.20
2017-08-17T19:55:43.909Z,100692.16
2017-08-17T19:58:12.284Z,100688.73
2017-08-17T20:00:40.585Z,100699.17
2017-08-17T20:03:08.901Z,100706.30
2017-08-17T20:05:37.222Z,100712.03
2017-08-17T20:08:05.533Z,100709.33
2017-08-17T20:10:33.864Z,100707.19
2017-08-17T20:13:02.321Z,100711.09
2017-08-17T20:15:30.621Z,100716.41
2017-08-17T20:17:58.929Z,100718.15
2017-08-17T20:20:27.292Z,100723.88
2017-08-17T20:22:55.658Z,100716.81
2017-08-17T20:25:23.970Z,100729.95
2017-08-17T20:27:53.238Z,100722.05
2017-08-17T20:30:21.622Z,100725.80
2017-08-17T20:32:49.922Z,100716.81
2017-08-17T20:35:19.025Z,100717.30
2017-08-17T20:37:48.099Z,100699.62
2017-08-17T20:40:16.518Z,100694.10
2017-08-17T20:42:44.813Z,100708.07
2017-08-17T20:45:13.130Z,100726.05
2017-08-17T20:47:41.611Z,100725.96
2017-08-17T20:50:09.982Z,100716.83
2017-08-17T20:52:38.291Z,100716.83
2017-08-17T20:55:07.459Z,100726.87
2017-08-17T20:57:35.832Z,100722.02
2017-08-17T21:00:04.211Z,100701.69
2017-08-17T21:02:32.598Z,100705.02
2017-08-17T21:05:00.914Z,100709.09
2017-08-17T21:07:29.221Z,100708.25
2017-08-17T21:09:57.530Z,100701.47
2017-08-17T21:12:25.859Z,100716.92
2017-08-17T21:14:54.171Z,100723.99
2017-08-17T21:17:22.474Z,100723.22
2017-08-17T21:19:50.782Z,100728.50
2017-08-17T21:22:19.085Z,100719.89
2017-08-17T21:24:47.401Z,100721.39
2017-08-17T21:27:15.727Z,100721.08
2017-08-17T21:29:44.148Z,100720.83
2017-08-17T21:32:12.518Z,100734.68
2017-08-17T21:34:40.922Z,100730.05
2017-08-17T21:37:09.292Z,100744.22
2017-08-17T21:39:37.670Z,100743.97
2017-08-17T21:42:05.988Z,100738.73
2017-08-17T21:44:34.324Z,100749.42
2017-08-17T21:47:02.691Z,100748.23
2017-08-17T21:49:31.066Z,100749.25
2017-08-17T21:51:59.461Z,100753.49
2017-08-17T21:54:27.771Z,100756.23
2017-08-17T21:56:56.102Z,100749.69
2017-08-17T21:59:24.405Z,100754.53
2017-08-17T22:01:53.562Z,100753.59
2017-08-17T22:04:21.955Z,100753.79
2017-08-17T22:06:50.335Z,100754.95
2017-08-17T22:09:18.657Z,100752.95
2017-08-17T22:11:46.974Z,100745.14
2017-08-17T22:14:15.274Z,100751.16
2017-08-17T22:16:43.586Z,100752.27
2017-08-17T22:19:11.889Z,100756.34
2017-08-17T22:21:40.218Z,100754.17
2017-08-17T22:24:09.294Z,100754.36
2017-08-17T22:26:37.610Z,100752.73
2017-08-17T22:29:05.923Z,100757.94
2017-08-17T22:31:34.224Z,100755.97
2017-08-17T22:34:02.548Z,100755.78
2017-08-17T22:36:30.841Z,100757.56
2017-08-17T22:38:59.154Z,100753.92
2017-08-17T22:41:27.525Z,100749.72
2017-08-17T22:43:55.842Z,100753.61
2017-08-17T22:46:24.149Z,100753.26
2017-08-17T22:48:52.465Z,100752.94
2017-08-17T22:51:20.771Z,100746.81
2017-08-17T22:53:49.122Z,100750.77
2017-08-17T22:56:17.426Z,100746.72
2017-08-17T22:58:45.743Z,100745.37
2017-08-17T23:01:14.107Z,100743.45
2017-08-17T23:03:42.412Z,100756.85
2017-08-17T23:06:10.729Z,100749.64
2017-08-17T23:08:39.788Z,100749.19
2017-08-17T23:11:08.098Z,100744.89
2017-08-17T23:13:37.170Z,100749.97
2017-08-17T23:16:05.477Z,100749.53
2017-08-17T23:18:34.539Z,100754.89
2017-08-17T23:21:02.858Z,100757.91
2017-08-17T23:23:31.162Z,100759.25
2017-08-17T23:25:59.575Z,100760.62
2017-08-17T23:28:27.951Z,100756.13
2017-08-17T23:30:56.329Z,100754.34
2017-08-17T23:33:24.653Z,100753.58
2017-08-17T23:35:52.973Z,100758.25
2017-08-17T23:38:21.278Z,100759.23
2017-08-17T23:40:49.579Z,100754.77
2017-08-17T23:43:17.885Z,100750.34
2017-08-17T23:45:46.186Z,100751.84
2017-08-17T23:48:14.493Z,100755.27
2017-08-17T23:50:43.565Z,100751.52
2017-08-17T23:53:11.873Z,100746.85
2017-08-17T23:55:40.934Z,100744.97
2017-08-17T23:58:09.266Z,100743.10
